Time;durP1;ratioP1;P1;durP2;ratioP2;P2;SDS_P1;SDS_P2;PMS_P1;PMS_P2;Temp;Humidity;BMP_temperature;BMP_pressure;BME280_temperature;BME280_humidity;BME280_pressure;Samples;Min_cycle;Max_cycle;Signal;HPM_P1;HPM_P2
2022/04/28 00:02:45;;;;;;;5.60;3.22;;;;;;;;;;10487047;28;20410;-82
2022/04/28 00:07:48;;;;;;;5.15;3.63;;;;;;;;;;10482041;28;20525;-80
2022/04/28 00:12:51;;;;;;;3.30;2.90;;;;;;;;;;10486318;28;20409;-81
2022/04/28 00:17:53;;;;;;;3.90;2.92;;;;;;;;;;10486202;28;20489;-82
2022/04/28 00:22:54;;;;;;;3.38;2.70;;;;;;;;;;10485361;28;20397;-82
2022/04/28 00:27:58;;;;;;;3.00;2.70;;;;;;;;;;10485474;28;20422;-82
2022/04/28 00:32:59;;;;;;;3.10;2.70;;;;;;;;;;10477747;28;20741;-81
2022/04/28 00:38:01;;;;;;;2.72;2.53;;;;;;;;;;10484997;28;20412;-81
2022/04/28 00:53:53;;;;;;;3.45;3.05;;;;;;;;;;10644918;27;20389;-82
2022/04/28 00:58:57;;;;;;;3.10;2.80;;;;;;;;;;10622840;27;21019;-82
2022/04/28 01:04:00;;;;;;;2.90;2.70;;;;;;;;;;10622479;27;20491;-81
2022/04/28 01:09:02;;;;;;;3.08;2.78;;;;;;;;;;10625538;27;20400;-82
2022/04/28 01:14:04;;;;;;;3.50;3.10;;;;;;;;;;10622446;27;20504;-81
2022/04/28 01:19:07;;;;;;;3.30;2.80;;;;;;;;;;10624080;27;20492;-82
2022/04/28 01:24:11;;;;;;;3.00;2.70;;;;;;;;;;10627551;27;21124;-82
2022/04/28 01:29:12;;;;;;;3.78;3.08;;;;;;;;;;10621612;27;20879;-82
2022/04/28 01:34:14;;;;;;;3.42;2.78;;;;;;;;;;10621359;27;20515;-82
2022/04/28 01:39:17;;;;;;;3.40;3.10;;;;;;;;;;10624763;27;20402;-82
2022/04/28 01:44:19;;;;;;;4.03;3.00;;;;;;;;;;10623416;27;21463;-82
2022/04/28 01:49:21;;;;;;;4.00;2.95;;;;;;;;;;10621914;27;20880;-81
2022/04/28 01:59:43;;;;;;;3.50;3.20;;;;;;;;;;10593529;27;20381;-82
2022/04/28 02:04:45;;;;;;;4.00;3.13;;;;;;;;;;10612325;27;20677;-81
2022/04/28 02:09:48;;;;;;;4.10;3.03;;;;;;;;;;10615533;27;20967;-82
2022/04/28 02:14:50;;;;;;;3.20;2.90;;;;;;;;;;10614889;27;20547;-81
2022/04/28 02:19:52;;;;;;;3.60;2.80;;;;;;;;;;10609104;27;20834;-81
2022/04/28 02:24:55;;;;;;;3.90;3.07;;;;;;;;;;10605973;27;20516;-81
2022/04/28 02:29:57;;;;;;;4.50;3.07;;;;;;;;;;10614113;27;20867;-82
2022/04/28 02:34:59;;;;;;;4.20;3.13;;;;;;;;;;10614020;27;20403;-82
2022/04/28 02:40:02;;;;;;;3.87;2.93;;;;;;;;;;10627380;27;20479;-82
2022/04/28 02:45:04;;;;;;;3.77;3.00;;;;;;;;;;10613240;27;20852;-82
2022/04/28 02:50:11;;;;;;;3.63;3.07;;;;;;;;;;10613129;27;20485;-82
2022/04/28 02:55:14;;;;;;;3.85;3.10;;;;;;;;;;10645201;27;20397;-81
2022/04/28 03:00:16;;;;;;;4.07;3.33;;;;;;;;;;10612718;27;21244;-82
2022/04/28 03:05:18;;;;;;;3.42;3.13;;;;;;;;;;10611531;27;20495;-82
2022/04/28 03:15:39;;;;;;;3.22;2.83;;;;;;;;;;10632828;27;20387;-82
2022/04/28 03:20:41;;;;;;;3.40;2.90;;;;;;;;;;10633711;27;20409;-82
2022/04/28 03:25:44;;;;;;;5.57;3.35;;;;;;;;;;10654274;27;20913;-82
2022/04/28 03:30:46;;;;;;;3.20;2.90;;;;;;;;;;10628684;27;20479;-82
2022/04/28 03:35:48;;;;;;;3.70;3.20;;;;;;;;;;10611916;27;20913;-81
2022/04/28 03:40:51;;;;;;;5.40;3.35;;;;;;;;;;10654122;27;20399;-82
2022/04/28 03:45:53;;;;;;;4.38;3.45;;;;;;;;;;10653803;27;20447;-81
2022/04/28 03:50:54;;;;;;;3.50;3.20;;;;;;;;;;10647192;27;20760;-82
2022/04/28 03:55:58;;;;;;;3.80;3.10;;;;;;;;;;10610435;27;20400;-82
2022/04/28 04:01:00;;;;;;;3.58;3.20;;;;;;;;;;10610252;27;20404;-81
2022/04/28 04:06:05;;;;;;;3.30;3.00;;;;;;;;;;10601445;27;20419;-81
2022/04/28 04:11:08;;;;;;;4.73;3.23;;;;;;;;;;10587808;27;20843;-82
2022/04/28 04:16:11;;;;;;;3.70;3.27;;;;;;;;;;10585609;27;20389;-82
2022/04/28 04:21:13;;;;;;;4.67;3.17;;;;;;;;;;10597840;27;20403;-82
2022/04/28 04:26:16;;;;;;;4.25;3.33;;;;;;;;;;10590441;27;20425;-81
2022/04/28 04:36:37;;;;;;;3.50;3.20;;;;;;;;;;10596551;27;20758;-82
2022/04/28 04:41:40;;;;;;;4.00;3.60;;;;;;;;;;10586196;27;20972;-82
2022/04/28 04:46:43;;;;;;;4.87;4.33;;;;;;;;;;10585892;28;20424;-82
2022/04/28 04:51:45;;;;;;;6.13;4.70;;;;;;;;;;10597678;27;20483;-81
2022/04/28 04:56:48;;;;;;;7.32;5.28;;;;;;;;;;10586024;28;20852;-82
2022/04/28 05:01:50;;;;;;;5.20;4.70;;;;;;;;;;10579410;28;20399;-82
2022/04/28 05:06:52;;;;;;;5.95;4.60;;;;;;;;;;10588562;27;20767;-82
2022/04/28 05:11:55;;;;;;;6.03;4.45;;;;;;;;;;10588796;28;20424;-83
2022/04/28 05:16:57;;;;;;;5.07;4.05;;;;;;;;;;10583026;28;20401;-83
2022/04/28 05:21:59;;;;;;;5.22;4.10;;;;;;;;;;10582056;27;20828;-82
2022/04/28 05:27:03;;;;;;;4.30;3.90;;;;;;;;;;10573528;28;20410;-82
2022/04/28 05:32:05;;;;;;;5.53;4.20;;;;;;;;;;10585545;27;20479;-82
2022/04/28 05:37:07;;;;;;;4.78;4.05;;;;;;;;;;10598506;27;20480;-82
2022/04/28 05:42:11;;;;;;;4.90;3.75;;;;;;;;;;10587500;27;20470;-83
2022/04/28 05:47:13;;;;;;;5.38;4.18;;;;;;;;;;10581515;27;20422;-81
2022/04/28 05:52:14;;;;;;;4.55;4.00;;;;;;;;;;10592427;27;20405;-81
2022/04/28 05:57:18;;;;;;;5.90;3.95;;;;;;;;;;10588577;27;20946;-82
2022/04/28 06:02:20;;;;;;;4.72;3.80;;;;;;;;;;10590448;27;20861;-82
2022/04/28 06:07:22;;;;;;;5.30;4.25;;;;;;;;;;10596074;27;20489;-82
2022/04/28 06:12:27;;;;;;;4.93;3.70;;;;;;;;;;10589947;27;20405;-82
2022/04/28 06:17:29;;;;;;;5.10;3.63;;;;;;;;;;10588626;27;20481;-82
2022/04/28 06:22:30;;;;;;;4.43;3.63;;;;;;;;;;10597313;27;20486;-82
2022/04/28 06:27:34;;;;;;;5.05;3.90;;;;;;;;;;10590292;27;20410;-81
2022/04/28 06:32:36;;;;;;;5.23;3.53;;;;;;;;;;10589955;27;20870;-82
2022/04/28 06:37:39;;;;;;;5.22;3.83;;;;;;;;;;10596264;27;20414;-80
2022/04/28 06:42:43;;;;;;;5.13;3.80;;;;;;;;;;10589151;27;20433;-82
2022/04/28 06:47:45;;;;;;;4.65;3.88;;;;;;;;;;10588593;27;20956;-82
2022/04/28 06:52:47;;;;;;;5.97;3.70;;;;;;;;;;10592942;27;20404;-82
2022/04/28 06:57:50;;;;;;;4.75;2.75;;;;;;;;;;10588780;27;20391;-81
2022/04/28 07:02:52;;;;;;;4.40;2.92;;;;;;;;;;10588508;27;20484;-81
2022/04/28 07:07:54;;;;;;;3.30;3.00;;;;;;;;;;10605769;27;20886;-81
2022/04/28 07:12:57;;;;;;;7.10;3.10;;;;;;;;;;10588312;27;20399;-80
2022/04/28 07:17:59;;;;;;;5.70;3.03;;;;;;;;;;10587969;27;20407;-73
2022/04/28 07:23:01;;;;;;;6.00;2.97;;;;;;;;;;10598382;27;20866;-75
2022/04/28 07:28:04;;;;;;;4.38;3.35;;;;;;;;;;10587751;27;20620;-75
2022/04/28 07:33:08;;;;;;;5.30;3.47;;;;;;;;;;10587759;27;20411;-75
2022/04/28 07:38:10;;;;;;;4.18;2.50;;;;;;;;;;10599521;27;20952;-75
2022/04/28 07:43:13;;;;;;;2.50;1.60;;;;;;;;;;10586890;27;20399;-82
2022/04/28 07:48:15;;;;;;;2.10;1.40;;;;;;;;;;10586314;27;20721;-82
2022/04/28 07:53:17;;;;;;;2.78;2.50;;;;;;;;;;10589877;27;20713;-82
2022/04/28 07:58:21;;;;;;;2.80;2.20;;;;;;;;;;10586094;27;20408;-82
2022/04/28 08:03:22;;;;;;;5.53;2.20;;;;;;;;;;10586257;27;20821;-82
2022/04/28 08:08:24;;;;;;;3.77;2.30;;;;;;;;;;10595910;27;20418;-82
2022/04/28 08:13:28;;;;;;;2.55;2.17;;;;;;;;;;10586066;27;20485;-82
2022/04/28 08:18:30;;;;;;;3.40;2.08;;;;;;;;;;10585926;27;21252;-82
2022/04/28 08:23:32;;;;;;;7.20;3.28;;;;;;;;;;10594071;27;20499;-82
2022/04/28 08:28:35;;;;;;;4.95;3.28;;;;;;;;;;10584927;27;20425;-82
2022/04/28 08:33:37;;;;;;;3.13;2.63;;;;;;;;;;10584977;27;20888;-82
2022/04/28 08:38:38;;;;;;;4.22;3.00;;;;;;;;;;10600156;27;20455;-82
2022/04/28 08:43:42;;;;;;;5.87;3.80;;;;;;;;;;10584083;27;20977;-83
2022/04/28 08:48:45;;;;;;;3.20;2.90;;;;;;;;;;10585201;28;20425;-82
2022/04/28 08:53:48;;;;;;;4.45;2.75;;;;;;;;;;10593936;27;20472;-82
2022/04/28 08:58:53;;;;;;;4.57;3.20;;;;;;;;;;10584639;28;20403;-82
2022/04/28 09:03:56;;;;;;;6.47;3.10;;;;;;;;;;10586116;27;20691;-82
2022/04/28 09:08:58;;;;;;;3.22;2.75;;;;;;;;;;10601870;27;20421;-82
2022/04/28 09:14:13;;;;;;;3.37;3.07;;;;;;;;;;10592957;27;20906;-81
2022/04/28 09:19:19;;;;;;;3.95;3.00;;;;;;;;;;10592461;27;20824;-82
2022/04/28 09:24:22;;;;;;;4.05;2.90;;;;;;;;;;10602329;27;20409;-82
2022/04/28 09:29:29;;;;;;;2.90;2.70;;;;;;;;;;10592001;27;20501;-82
2022/04/28 09:34:30;;;;;;;3.28;2.53;;;;;;;;;;10597889;27;20495;-82
2022/04/28 09:44:59;;;;;;;5.22;2.67;;;;;;;;;;10590994;27;20806;-81
2022/04/28 09:50:01;;;;;;;3.05;2.72;;;;;;;;;;10591589;27;20460;-82
2022/04/28 09:55:05;;;;;;;2.80;2.20;;;;;;;;;;10600789;27;20783;-82
2022/04/28 10:00:09;;;;;;;2.65;2.30;;;;;;;;;;10591173;27;20503;-84
2022/04/28 10:05:12;;;;;;;2.85;2.10;;;;;;;;;;10599832;27;20486;-83
2022/04/28 10:10:14;;;;;;;2.25;2.00;;;;;;;;;;10600279;27;20423;-83
2022/04/28 10:15:17;;;;;;;3.20;2.07;;;;;;;;;;10591568;27;21018;-82
2022/04/28 10:20:36;;;;;;;2.08;1.88;;;;;;;;;;10591891;27;20844;-83
2022/04/28 10:36:23;;;;;;;1.60;1.50;;;;;;;;;;10603852;27;20393;-83
2022/04/28 10:41:29;;;;;;;2.28;1.63;;;;;;;;;;10589996;27;20473;-83
2022/04/28 10:46:33;;;;;;;2.63;2.00;;;;;;;;;;10589017;27;20520;-83
2022/04/28 10:51:35;;;;;;;3.67;2.00;;;;;;;;;;10598385;27;20487;-83
2022/04/28 10:57:12;;;;;;;3.10;2.00;;;;;;;;;;10589026;27;20518;-83
2022/04/28 11:02:42;;;;;;;3.00;2.00;;;;;;;;;;10588999;27;20430;-83
2022/04/28 11:07:47;;;;;;;2.73;2.20;;;;;;;;;;10598859;27;20472;-83
2022/04/28 11:12:50;;;;;;;2.70;2.50;;;;;;;;;;10588186;27;20500;-83
2022/04/28 11:17:53;;;;;;;3.28;2.20;;;;;;;;;;10588763;27;21099;-83
2022/04/28 11:22:56;;;;;;;2.65;2.45;;;;;;;;;;10596294;27;20484;-83
2022/04/28 11:27:58;;;;;;;3.90;2.33;;;;;;;;;;10586904;27;20413;-83
2022/04/28 11:33:01;;;;;;;2.63;1.77;;;;;;;;;;10587068;27;20977;-83
2022/04/28 11:38:04;;;;;;;2.05;1.70;;;;;;;;;;10598997;27;20833;-83
2022/04/28 11:43:06;;;;;;;3.80;2.60;;;;;;;;;;10586064;27;20488;-83
2022/04/28 11:48:10;;;;;;;2.60;2.40;;;;;;;;;;10586989;27;20417;-83
2022/04/28 11:53:12;;;;;;;6.50;2.70;;;;;;;;;;10599404;27;20825;-84
2022/04/28 11:58:15;;;;;;;2.10;1.90;;;;;;;;;;10586070;27;20401;-83
2022/04/28 12:03:26;;;;;;;2.87;2.40;;;;;;;;;;10587376;27;20405;-82
2022/04/28 12:08:28;;;;;;;3.15;2.50;;;;;;;;;;10594314;27;20698;-82
2022/04/28 12:19:20;;;;;;;2.90;2.10;;;;;;;;;;10585143;27;20383;-83
2022/04/28 12:24:26;;;;;;;2.75;2.15;;;;;;;;;;10581827;27;20433;-82
2022/04/28 12:29:27;;;;;;;2.05;1.85;;;;;;;;;;10573200;27;20508;-83
2022/04/28 12:34:30;;;;;;;2.25;2.05;;;;;;;;;;10572788;27;20716;-83
2022/04/28 12:39:32;;;;;;;2.90;2.70;;;;;;;;;;10579937;27;20503;-83
2022/04/28 12:44:44;;;;;;;3.70;2.80;;;;;;;;;;10574965;27;21058;-83
2022/04/28 12:49:48;;;;;;;2.97;2.37;;;;;;;;;;10566796;28;20414;-83
2022/04/28 12:55:01;;;;;;;3.10;2.15;;;;;;;;;;10567224;27;20413;-83
2022/04/28 13:00:05;;;;;;;4.32;2.58;;;;;;;;;;10567622;28;20961;-83
2022/04/28 13:05:13;;;;;;;2.93;2.63;;;;;;;;;;10575025;27;20448;-83
2022/04/28 13:10:17;;;;;;;3.10;2.80;;;;;;;;;;10566035;27;20426;-82
2022/04/28 13:15:19;;;;;;;2.53;2.30;;;;;;;;;;10567049;28;20398;-84
2022/04/28 13:20:22;;;;;;;2.90;2.30;;;;;;;;;;10565361;27;20390;-83
2022/04/28 13:25:25;;;;;;;2.30;2.10;;;;;;;;;;10571205;27;20395;-83
2022/04/28 13:30:26;;;;;;;2.47;2.27;;;;;;;;;;10573126;28;20419;-83
2022/04/28 13:35:30;;;;;;;3.50;2.10;;;;;;;;;;10577613;27;20494;-83
2022/04/28 13:40:32;;;;;;;2.95;2.60;;;;;;;;;;10578574;28;20485;-83
2022/04/28 13:45:34;;;;;;;3.00;2.60;;;;;;;;;;10573434;28;20430;-83
2022/04/28 13:50:38;;;;;;;3.10;2.07;;;;;;;;;;10586852;27;20545;-83
2022/04/28 13:55:40;;;;;;;3.63;2.43;;;;;;;;;;10588420;27;20405;-83
2022/04/28 14:00:50;;;;;;;4.10;2.50;;;;;;;;;;10584415;27;20403;-83
2022/04/28 14:05:55;;;;;;;3.20;2.10;;;;;;;;;;10578804;27;20672;-83
2022/04/28 14:10:59;;;;;;;2.60;2.33;;;;;;;;;;10586612;27;20424;-83
2022/04/28 14:16:01;;;;;;;2.60;2.38;;;;;;;;;;10596123;27;20422;-83
2022/04/28 14:21:04;;;;;;;2.95;2.53;;;;;;;;;;10591328;27;20413;-83
2022/04/28 14:26:06;;;;;;;2.38;2.17;;;;;;;;;;10595248;27;20397;-83
2022/04/28 14:31:09;;;;;;;3.72;2.30;;;;;;;;;;10588306;27;20518;-83
2022/04/28 14:36:12;;;;;;;4.97;3.03;;;;;;;;;;10589568;27;20409;-83
2022/04/28 14:41:14;;;;;;;3.90;2.60;;;;;;;;;;10598476;27;20942;-82
2022/04/28 14:46:15;;;;;;;3.35;3.05;;;;;;;;;;10575075;27;20494;-83
2022/04/28 14:56:38;;;;;;;3.03;2.53;;;;;;;;;;10587015;27;20384;-83
2022/04/28 15:01:40;;;;;;;2.73;2.53;;;;;;;;;;10582768;27;20460;-83
2022/04/28 15:06:43;;;;;;;3.40;2.30;;;;;;;;;;10593577;27;20421;-83
2022/04/28 15:11:46;;;;;;;3.27;2.97;;;;;;;;;;10581608;27;20898;-83
2022/04/28 15:16:47;;;;;;;3.78;2.95;;;;;;;;;;10578830;27;20414;-83
2022/04/28 15:21:51;;;;;;;3.78;2.58;;;;;;;;;;10584119;27;20478;-83
2022/04/28 15:26:53;;;;;;;3.80;2.60;;;;;;;;;;10578234;27;20986;-83
2022/04/28 15:31:55;;;;;;;3.53;2.90;;;;;;;;;;10579559;27;21242;-84
2022/04/28 15:36:58;;;;;;;3.67;2.75;;;;;;;;;;10579540;27;20396;-83
2022/04/28 15:42:00;;;;;;;3.10;2.50;;;;;;;;;;10578830;27;20397;-83
2022/04/28 15:47:02;;;;;;;3.35;2.70;;;;;;;;;;10578518;27;20944;-83
2022/04/28 15:52:06;;;;;;;2.90;2.60;;;;;;;;;;10587000;27;20429;-83
2022/04/28 15:57:09;;;;;;;2.78;2.55;;;;;;;;;;10588507;27;21216;-82
2022/04/28 16:02:12;;;;;;;2.65;2.45;;;;;;;;;;10577039;27;20402;-82
2022/04/28 16:07:15;;;;;;;3.60;2.55;;;;;;;;;;10577742;27;20509;-82
2022/04/28 16:12:17;;;;;;;2.83;2.58;;;;;;;;;;10583950;27;20432;-82
2022/04/28 16:17:19;;;;;;;3.72;2.97;;;;;;;;;;10589115;27;20428;-82
2022/04/28 16:22:22;;;;;;;3.20;2.50;;;;;;;;;;10588047;27;20447;-82
2022/04/28 16:27:26;;;;;;;2.70;2.22;;;;;;;;;;10566068;27;20451;-82
2022/04/28 16:32:33;;;;;;;2.90;2.40;;;;;;;;;;10571532;27;20825;-82
2022/04/28 16:37:37;;;;;;;3.60;2.35;;;;;;;;;;10569348;27;20929;-83
2022/04/28 16:42:39;;;;;;;2.20;2.00;;;;;;;;;;10568249;27;20868;-84
2022/04/28 16:47:41;;;;;;;3.47;2.60;;;;;;;;;;10571797;27;20513;-83
2022/04/28 16:52:45;;;;;;;3.23;2.93;;;;;;;;;;10584470;27;20479;-83
2022/04/28 16:57:46;;;;;;;3.20;2.90;;;;;;;;;;10579934;28;20918;-84
2022/04/28 17:08:09;;;;;;;3.30;3.00;;;;;;;;;;10576802;27;20757;-83
2022/04/28 17:13:11;;;;;;;3.17;2.53;;;;;;;;;;10568023;28;20402;-83
2022/04/28 17:18:14;;;;;;;3.88;2.90;;;;;;;;;;10568892;28;20402;-81
2022/04/28 17:23:17;;;;;;;3.40;2.90;;;;;;;;;;10577714;27;21026;-81
2022/04/28 17:28:19;;;;;;;3.17;2.88;;;;;;;;;;10583264;27;20420;-81
2022/04/28 17:33:20;;;;;;;3.63;3.20;;;;;;;;;;10573979;27;20409;-82
2022/04/28 17:38:24;;;;;;;4.30;2.95;;;;;;;;;;10574369;27;20398;-81
2022/04/28 17:43:26;;;;;;;4.05;2.83;;;;;;;;;;10587739;27;20393;-80
2022/04/28 17:48:28;;;;;;;3.78;3.17;;;;;;;;;;10583593;27;20425;-83
2022/04/28 17:53:31;;;;;;;4.13;3.30;;;;;;;;;;10573876;27;20421;-82
2022/04/28 18:03:52;;;;;;;4.05;2.83;;;;;;;;;;10568756;27;20399;-82
2022/04/28 18:08:56;;;;;;;4.55;3.00;;;;;;;;;;10583531;27;20414;-81
2022/04/28 18:13:58;;;;;;;4.65;2.83;;;;;;;;;;10581446;27;20448;-83
2022/04/28 18:19:00;;;;;;;4.38;2.80;;;;;;;;;;10579270;27;20493;-82
2022/04/28 18:24:05;;;;;;;3.00;2.67;;;;;;;;;;10580698;27;20419;-82
2022/04/28 18:29:07;;;;;;;3.90;2.80;;;;;;;;;;10578251;27;20767;-80
2022/04/28 18:34:09;;;;;;;3.83;3.20;;;;;;;;;;10583181;27;20409;-81
2022/04/28 18:44:32;;;;;;;3.65;3.20;;;;;;;;;;10572754;27;20394;-81
2022/04/28 18:49:36;;;;;;;5.25;3.45;;;;;;;;;;10569525;27;20506;-81
2022/04/28 18:54:41;;;;;;;4.00;3.60;;;;;;;;;;10578508;27;20467;-80
2022/04/28 18:59:43;;;;;;;6.80;4.50;;;;;;;;;;10577506;27;20430;-81
2022/04/28 19:04:45;;;;;;;6.35;4.90;;;;;;;;;;10576409;27;20506;-82
2022/04/28 19:09:49;;;;;;;6.38;4.88;;;;;;;;;;10576911;27;20426;-82
2022/04/28 19:14:55;;;;;;;8.50;4.90;;;;;;;;;;10568784;27;20469;-80
2022/04/28 19:20:01;;;;;;;6.23;4.50;;;;;;;;;;10571604;27;20418;-80
2022/04/28 19:25:06;;;;;;;6.00;4.88;;;;;;;;;;10576196;27;20427;-81
2022/04/28 19:30:09;;;;;;;6.15;5.28;;;;;;;;;;10564540;27;20775;-81
2022/04/28 19:35:12;;;;;;;6.82;4.95;;;;;;;;;;10573787;27;20890;-81
2022/04/28 19:40:17;;;;;;;6.43;4.87;;;;;;;;;;10574321;27;20501;-81
2022/04/28 19:45:19;;;;;;;6.90;5.50;;;;;;;;;;10575820;27;20573;-79
2022/04/28 19:50:21;;;;;;;8.00;5.80;;;;;;;;;;10568306;27;20650;-82
2022/04/28 19:55:24;;;;;;;8.63;7.57;;;;;;;;;;10577053;27;20910;-81
2022/04/28 20:00:26;;;;;;;10.48;8.45;;;;;;;;;;10576338;27;20473;-81
2022/04/28 20:05:28;;;;;;;12.73;8.85;;;;;;;;;;10577263;27;20413;-81
2022/04/28 20:10:32;;;;;;;12.88;10.20;;;;;;;;;;10583687;27;20417;-81
2022/04/28 20:15:36;;;;;;;10.63;9.52;;;;;;;;;;10570869;27;20404;-81
2022/04/28 20:20:40;;;;;;;11.33;9.97;;;;;;;;;;10586390;27;20423;-80
2022/04/28 20:25:44;;;;;;;15.17;10.27;;;;;;;;;;10581565;27;20509;-81
2022/04/28 20:30:46;;;;;;;10.80;9.48;;;;;;;;;;10582137;27;21161;-82
2022/04/28 20:35:47;;;;;;;10.98;9.60;;;;;;;;;;10588156;27;20471;-83
2022/04/28 20:40:51;;;;;;;12.80;9.35;;;;;;;;;;10577046;27;20438;-83
2022/04/28 20:45:53;;;;;;;12.07;9.70;;;;;;;;;;10581181;27;20418;-83
2022/04/28 20:50:55;;;;;;;12.70;9.47;;;;;;;;;;10582534;27;20425;-83
2022/04/28 20:56:00;;;;;;;12.23;10.20;;;;;;;;;;10582449;28;20410;-83
2022/04/28 21:01:03;;;;;;;15.68;10.98;;;;;;;;;;10575455;27;20831;-83
2022/04/28 21:06:05;;;;;;;12.43;10.67;;;;;;;;;;10582788;27;20470;-83
2022/04/28 21:11:08;;;;;;;14.38;12.35;;;;;;;;;;10577634;27;20419;-83
2022/04/28 21:16:10;;;;;;;15.40;12.48;;;;;;;;;;10580089;27;20408;-83
2022/04/28 21:21:13;;;;;;;18.50;12.83;;;;;;;;;;10592338;27;20408;-83
2022/04/28 21:26:17;;;;;;;18.00;14.05;;;;;;;;;;10583974;27;20398;-82
2022/04/28 21:31:18;;;;;;;17.40;15.20;;;;;;;;;;10586549;27;20951;-83
2022/04/28 21:36:22;;;;;;;17.92;13.98;;;;;;;;;;10581601;27;20494;-83
2022/04/28 21:41:27;;;;;;;17.85;14.60;;;;;;;;;;10578300;27;20887;-83
2022/04/28 21:46:29;;;;;;;16.52;13.75;;;;;;;;;;10584426;27;20406;-83
2022/04/28 21:51:30;;;;;;;16.88;13.25;;;;;;;;;;10594257;27;20425;-83
2022/04/28 21:56:34;;;;;;;17.08;14.60;;;;;;;;;;10590323;27;20388;-83
2022/04/28 22:01:36;;;;;;;17.95;14.55;;;;;;;;;;10590939;27;20896;-83
2022/04/28 22:11:58;;;;;;;15.63;13.70;;;;;;;;;;10590602;27;20763;-83
2022/04/28 22:17:00;;;;;;;15.75;13.93;;;;;;;;;;10587002;27;20489;-83
2022/04/28 22:22:02;;;;;;;15.30;12.88;;;;;;;;;;10589195;27;20401;-84
2022/04/28 22:27:06;;;;;;;14.27;12.33;;;;;;;;;;10592751;27;20393;-83
2022/04/28 22:32:09;;;;;;;14.25;11.52;;;;;;;;;;10589656;27;20572;-83
2022/04/28 22:37:10;;;;;;;12.07;10.57;;;;;;;;;;10594765;27;20472;-83
2022/04/28 22:42:13;;;;;;;11.07;9.88;;;;;;;;;;10591746;27;21094;-83
2022/04/28 22:47:15;;;;;;;11.68;9.02;;;;;;;;;;10591023;27;20484;-83
2022/04/28 22:52:18;;;;;;;12.37;9.03;;;;;;;;;;10601755;27;20477;-83
2022/04/28 22:57:21;;;;;;;10.07;8.10;;;;;;;;;;10590909;27;20754;-84
2022/04/28 23:02:23;;;;;;;10.37;8.07;;;;;;;;;;10590355;27;20452;-83
2022/04/28 23:07:25;;;;;;;9.02;8.13;;;;;;;;;;10593726;27;20424;-83
2022/04/28 23:12:29;;;;;;;9.27;7.35;;;;;;;;;;10590266;27;20516;-83
2022/04/28 23:17:31;;;;;;;9.17;6.97;;;;;;;;;;10589676;27;20396;-83
2022/04/28 23:22:33;;;;;;;11.40;7.53;;;;;;;;;;10594857;27;20402;-82
2022/04/28 23:27:37;;;;;;;8.73;7.60;;;;;;;;;;10588373;27;20754;-82
2022/04/28 23:32:39;;;;;;;11.57;8.00;;;;;;;;;;10589252;27;20429;-83
2022/04/28 23:43:04;;;;;;;10.00;8.80;;;;;;;;;;10587624;27;20385;-82
2022/04/28 23:48:08;;;;;;;9.88;8.88;;;;;;;;;;10587946;27;21012;-83
2022/04/28 23:58:32;;;;;;;9.63;7.97;;;;;;;;;;10587800;27;20475;-82
